sensor_id;sensor_type;location;lat;lon;timestamp;pressure;altitude;pressure_sealevel;temperature;humidity
3590;BME280;1809;48.470;9.226;2023-02-16T00:00:27;97430.72;;;2.73;100.00
3590;BME280;1809;48.470;9.226;2023-02-16T00:02:53;97068.66;;;2.58;100.00
3590;BME280;1809;48.470;9.226;2023-02-16T00:07:46;97062.22;;;2.54;100.00
3590;BME280;1809;48.470;9.226;2023-02-16T00:10:12;97039.75;;;2.40;100.00
3590;BME280;1809;48.470;9.226;2023-02-16T00:12:37;98397.72;;;2.44;100.00
3590;BME280;1809;48.470;9.226;2023-02-16T00:15:21;98373.34;;;2.29;100.00
3590;BME280;1809;48.470;9.226;2023-02-16T00:17:46;100048.19;;;2.20;100.00
3590;BME280;1809;48.470;9.226;2023-02-16T00:20:15;102405.53;;;2.14;100.00
3590;BME280;1809;48.470;9.226;2023-02-16T00:22:41;105784.56;;;2.11;100.00
3590;BME280;1809;48.470;9.226;2023-02-16T00:25:06;111926.31;;;2.35;100.00
3590;BME280;1809;48.470;9.226;2023-02-16T00:27:33;117728.06;;;2.51;100.00
3590;BME280;1809;48.470;9.226;2023-02-16T00:29:59;121466.53;;;2.50;100.00
3590;BME280;1809;48.470;9.226;2023-02-16T00:32:24;124548.47;;;2.59;100.00
3590;BME280;1809;48.470;9.226;2023-02-16T00:34:49;125885.91;;;2.47;100.00
3590;BME280;1809;48.470;9.226;2023-02-16T00:37:15;128286.06;;;2.54;100.00
3590;BME280;1809;48.470;9.226;2023-02-16T00:39:41;129644.56;;;2.51;100.00
3590;BME280;1809;48.470;9.226;2023-02-16T00:42:19;131375.19;;;2.63;100.00
3590;BME280;1809;48.470;9.226;2023-02-16T00:44:51;132414.53;;;2.70;100.00
3590;BME280;1809;48.470;9.226;2023-02-16T00:47:30;132716.16;;;2.52;100.00
3590;BME280;1809;48.470;9.226;2023-02-16T00:49:56;132698.47;;;2.44;100.00
3590;BME280;1809;48.470;9.226;2023-02-16T00:54:52;134053.78;;;2.39;100.00
3590;BME280;1809;48.470;9.226;2023-02-16T00:57:17;135092.69;;;2.46;100.00
3590;BME280;1809;48.470;9.226;2023-02-16T00:59:44;135787.06;;;2.51;100.00
3590;BME280;1809;48.470;9.226;2023-02-16T01:02:10;135784.78;;;2.50;100.00
3590;BME280;1809;48.470;9.226;2023-02-16T01:04:36;135443.22;;;2.50;100.00
3590;BME280;1809;48.470;9.226;2023-02-16T01:07:01;135083.66;;;2.42;100.00
3590;BME280;1809;48.470;9.226;2023-02-16T01:09:49;134716.41;;;2.30;100.00
3590;BME280;1809;48.470;9.226;2023-02-16T01:12:33;134362.69;;;2.25;100.00
3590;BME280;1809;48.470;9.226;2023-02-16T01:14:58;134364.94;;;2.26;100.00
3590;BME280;1809;48.470;9.226;2023-02-16T01:17:23;134366.06;;;2.26;100.00
3590;BME280;1809;48.470;9.226;2023-02-16T01:19:49;133327.78;;;2.20;100.00
3590;BME280;1809;48.470;9.226;2023-02-16T01:22:14;132617.84;;;2.07;100.00
3590;BME280;1809;48.470;9.226;2023-02-16T01:24:40;132269.06;;;2.03;100.00
3590;BME280;1809;48.470;9.226;2023-02-16T01:27:09;132629.97;;;2.12;100.00
3590;BME280;1809;48.470;9.226;2023-02-16T01:29:36;132285.63;;;2.11;100.00
3590;BME280;1809;48.470;9.226;2023-02-16T01:32:01;131604.69;;;2.11;100.00
3590;BME280;1809;48.470;9.226;2023-02-16T01:34:29;130923.84;;;2.12;100.00
3590;BME280;1809;48.470;9.226;2023-02-16T01:36:54;129880.66;;;2.02;100.00
3590;BME280;1809;48.470;9.226;2023-02-16T01:39:20;129203.53;;;2.04;100.00
3590;BME280;1809;48.470;9.226;2023-02-16T01:41:58;127821.78;;;1.95;100.00
3590;BME280;1809;48.470;9.226;2023-02-16T01:44:35;127133.38;;;1.92;100.00
3590;BME280;1809;48.470;9.226;2023-02-16T01:49:32;125794.84;;;2.03;100.00
3590;BME280;1809;48.470;9.226;2023-02-16T01:52:26;124779.09;;;2.05;100.00
3590;BME280;1809;48.470;9.226;2023-02-16T01:55:31;123043.22;;;1.88;100.00
3590;BME280;1809;48.470;9.226;2023-02-16T01:58:51;122689.94;;;1.82;100.00
3590;BME280;1809;48.470;9.226;2023-02-16T02:03:19;122011.09;;;1.82;100.00
3590;BME280;1809;48.470;9.226;2023-02-16T02:06:11;121697.53;;;1.95;100.00
3590;BME280;1809;48.470;9.226;2023-02-16T02:08:42;121029.78;;;2.01;100.00
3590;BME280;1809;48.470;9.226;2023-02-16T02:11:31;119298.91;;;1.85;100.00
3590;BME280;1809;48.470;9.226;2023-02-16T02:14:08;118607.84;;;1.79;100.00
3590;BME280;1809;48.470;9.226;2023-02-16T02:16:35;118252.59;;;1.71;100.00
3590;BME280;1809;48.470;9.226;2023-02-16T02:19:02;118244.75;;;1.67;100.00
3590;BME280;1809;48.470;9.226;2023-02-16T02:27:23;119225.59;;;1.48;100.00
3590;BME280;1809;48.470;9.226;2023-02-16T02:33:04;120571.59;;;1.42;100.00
3590;BME280;1809;48.470;9.226;2023-02-16T02:35:50;121944.19;;;1.49;100.00
3590;BME280;1809;48.470;9.226;2023-02-16T02:38:36;122639.97;;;1.57;100.00
3590;BME280;1809;48.470;9.226;2023-02-16T02:41:36;122977.75;;;1.56;100.00
3590;BME280;1809;48.470;9.226;2023-02-16T02:44:26;123329.91;;;1.62;100.00
3590;BME280;1809;48.470;9.226;2023-02-16T02:46:53;123665.75;;;1.60;100.00
3590;BME280;1809;48.470;9.226;2023-02-16T02:49:20;123307.38;;;1.51;100.00
3590;BME280;1809;48.470;9.226;2023-02-16T02:51:46;124003.63;;;1.59;100.00
3590;BME280;1809;48.470;9.226;2023-02-16T02:54:14;124012.91;;;1.63;100.00
3590;BME280;1809;48.470;9.226;2023-02-16T02:57:37;123349.41;;;1.72;100.00
3590;BME280;1809;48.470;9.226;2023-02-16T03:00:30;122330.66;;;1.72;100.00
3590;BME280;1809;48.470;9.226;2023-02-16T03:03:30;120953.34;;;1.63;100.00
3590;BME280;1809;48.470;9.226;2023-02-16T03:06:19;119901.53;;;1.46;100.00
3590;BME280;1809;48.470;9.226;2023-02-16T03:08:49;119535.25;;;1.33;100.00
3590;BME280;1809;48.470;9.226;2023-02-16T03:11:22;120208.09;;;1.30;100.00
3590;BME280;1809;48.470;9.226;2023-02-16T03:14:16;120882.97;;;1.28;100.00
3590;BME280;1809;48.470;9.226;2023-02-16T03:16:48;120895.06;;;1.34;100.00
3590;BME280;1809;48.470;9.226;2023-02-16T03:19:34;120193.06;;;1.22;100.00
3590;BME280;1809;48.470;9.226;2023-02-16T03:22:19;120165.13;;;1.08;100.00
3590;BME280;1809;48.470;9.226;2023-02-16T03:25:04;121188.22;;;1.11;100.00
3590;BME280;1809;48.470;9.226;2023-02-16T03:27:49;121517.56;;;1.05;100.00
3590;BME280;1809;48.470;9.226;2023-02-16T03:30:34;122176.16;;;0.95;100.00
3590;BME280;1809;48.470;9.226;2023-02-16T03:32:59;123188.44;;;0.92;100.00
3590;BME280;1809;48.470;9.226;2023-02-16T03:35:25;123849.00;;;0.83;100.00
3590;BME280;1809;48.470;9.226;2023-02-16T03:37:55;124515.69;;;0.77;100.00
3590;BME280;1809;48.470;9.226;2023-02-16T03:40:22;125530.28;;;0.75;100.00
3590;BME280;1809;48.470;9.226;2023-02-16T03:42:59;126536.72;;;0.69;100.00
3590;BME280;1809;48.470;9.226;2023-02-16T03:45:25;127205.63;;;0.64;100.00
3590;BME280;1809;48.470;9.226;2023-02-16T03:47:52;128218.59;;;0.61;100.00
3590;BME280;1809;48.470;9.226;2023-02-16T03:50:18;128541.28;;;0.53;100.00
3590;BME280;1809;48.470;9.226;2023-02-16T03:52:47;129920.31;;;0.62;100.00
3590;BME280;1809;48.470;9.226;2023-02-16T03:55:14;130602.53;;;0.63;100.00
3590;BME280;1809;48.470;9.226;2023-02-16T03:57:40;131279.47;;;0.62;100.00
3590;BME280;1809;48.470;9.226;2023-02-16T04:00:06;132329.72;;;0.75;100.00
3590;BME280;1809;48.470;9.226;2023-02-16T04:02:32;133054.78;;;0.95;100.00
3590;BME280;1809;48.470;9.226;2023-02-16T04:04:57;132359.53;;;0.89;100.00
3590;BME280;1809;48.470;9.226;2023-02-16T04:07:23;132358.41;;;0.88;100.00
3590;BME280;1809;48.470;9.226;2023-02-16T04:09:49;132717.59;;;0.97;100.00
3590;BME280;1809;48.470;9.226;2023-02-16T04:12:15;132030.16;;;0.94;100.00
3590;BME280;1809;48.470;9.226;2023-02-16T04:14:59;131671.16;;;0.85;100.00
3590;BME280;1809;48.470;9.226;2023-02-16T04:17:24;131327.63;;;0.84;100.00
3590;BME280;1809;48.470;9.226;2023-02-16T04:19:53;130973.19;;;0.77;100.00
3590;BME280;1809;48.470;9.226;2023-02-16T04:22:19;131310.06;;;0.76;100.00
3590;BME280;1809;48.470;9.226;2023-02-16T04:24:44;131306.81;;;0.74;100.00
3590;BME280;1809;48.470;9.226;2023-02-16T04:27:10;130938.25;;;0.61;100.00
3590;BME280;1809;48.470;9.226;2023-02-16T04:29:36;131291.47;;;0.67;100.00
3590;BME280;1809;48.470;9.226;2023-02-16T04:32:04;131622.88;;;0.63;100.00
3590;BME280;1809;48.470;9.226;2023-02-16T04:34:36;131620.69;;;0.62;100.00
3590;BME280;1809;48.470;9.226;2023-02-16T04:37:22;131267.44;;;0.56;100.00
3590;BME280;1809;48.470;9.226;2023-02-16T04:39:54;131607.53;;;0.56;100.00
3590;BME280;1809;48.470;9.226;2023-02-16T04:42:20;131597.63;;;0.51;100.00
3590;BME280;1809;48.470;9.226;2023-02-16T04:44:45;131592.16;;;0.49;100.00
3590;BME280;1809;48.470;9.226;2023-02-16T04:47:11;131927.84;;;0.47;100.00
3590;BME280;1809;48.470;9.226;2023-02-16T04:49:36;132625.81;;;0.55;100.00
3590;BME280;1809;48.470;9.226;2023-02-16T04:52:02;133673.34;;;0.67;100.00
3590;BME280;1809;48.470;9.226;2023-02-16T04:54:29;133670.00;;;0.66;100.00
3590;BME280;1809;48.470;9.226;2023-02-16T04:56:56;133333.00;;;0.67;100.00
3590;BME280;1809;48.470;9.226;2023-02-16T04:59:21;133336.31;;;0.69;100.00
3590;BME280;1809;48.470;9.226;2023-02-16T05:01:47;133346.34;;;0.73;100.00
3590;BME280;1809;48.470;9.226;2023-02-16T05:04:13;132656.78;;;0.69;100.00
3590;BME280;1809;48.470;9.226;2023-02-16T05:06:40;132303.25;;;0.63;100.00
3590;BME280;1809;48.470;9.226;2023-02-16T05:09:06;131954.28;;;0.59;100.00
3590;BME280;1809;48.470;9.226;2023-02-16T05:11:32;131955.34;;;0.60;100.00
3590;BME280;1809;48.470;9.226;2023-02-16T05:14:26;131947.69;;;0.56;100.00
3590;BME280;1809;48.470;9.226;2023-02-16T05:17:17;131587.75;;;0.47;100.00
3590;BME280;1809;48.470;9.226;2023-02-16T05:19:45;131925.66;;;0.46;100.00
3590;BME280;1809;48.470;9.226;2023-02-16T05:22:11;132280.13;;;0.52;100.00
3590;BME280;1809;48.470;9.226;2023-02-16T05:24:38;132281.19;;;0.53;100.00
3590;BME280;1809;48.470;9.226;2023-02-16T05:27:07;132628.03;;;0.56;100.00
3590;BME280;1809;48.470;9.226;2023-02-16T05:29:33;133673.34;;;0.67;100.00
3590;BME280;1809;48.470;9.226;2023-02-16T05:31:59;133693.44;;;0.76;100.00
3590;BME280;1809;48.470;9.226;2023-02-16T05:34:25;133700.13;;;0.79;100.00
3590;BME280;1809;48.470;9.226;2023-02-16T05:36:51;133375.25;;;0.86;100.00
3590;BME280;1809;48.470;9.226;2023-02-16T05:39:17;132320.94;;;0.71;100.00
3590;BME280;1809;48.470;9.226;2023-02-16T05:41:43;131978.47;;;0.70;100.00
3590;BME280;1809;48.470;9.226;2023-02-16T05:44:09;132347.41;;;0.83;100.00
3590;BME280;1809;48.470;9.226;2023-02-16T05:46:37;131664.56;;;0.82;100.00
3590;BME280;1809;48.470;9.226;2023-02-16T05:49:03;130981.88;;;0.81;100.00
3590;BME280;1809;48.470;9.226;2023-02-16T05:51:29;130299.41;;;0.80;100.00
3590;BME280;1809;48.470;9.226;2023-02-16T05:53:55;129246.84;;;0.65;100.00
3590;BME280;1809;48.470;9.226;2023-02-16T05:56:21;129950.63;;;0.76;100.00
3590;BME280;1809;48.470;9.226;2023-02-16T05:58:47;129612.72;;;0.77;100.00
3590;BME280;1809;48.470;9.226;2023-02-16T06:01:13;128926.25;;;0.74;100.00
3590;BME280;1809;48.470;9.226;2023-02-16T06:03:38;128926.25;;;0.74;100.00
3590;BME280;1809;48.470;9.226;2023-02-16T06:06:04;128586.31;;;0.74;100.00
3590;BME280;1809;48.470;9.226;2023-02-16T06:08:31;127878.81;;;0.61;100.00
3590;BME280;1809;48.470;9.226;2023-02-16T06:10:57;127885.19;;;0.64;100.00
3590;BME280;1809;48.470;9.226;2023-02-16T06:13:23;127883.03;;;0.63;100.00
3590;BME280;1809;48.470;9.226;2023-02-16T06:15:51;128222.88;;;0.63;100.00
3590;BME280;1809;48.470;9.226;2023-02-16T06:18:17;128233.56;;;0.68;100.00
3590;BME280;1809;48.470;9.226;2023-02-16T06:20:43;127886.25;;;0.65;100.00
3590;BME280;1809;48.470;9.226;2023-02-16T06:23:10;127188.69;;;0.56;100.00
3590;BME280;1809;48.470;9.226;2023-02-16T06:25:36;127185.50;;;0.54;100.00
3590;BME280;1809;48.470;9.226;2023-02-16T06:28:02;127189.72;;;0.57;100.00
3590;BME280;1809;48.470;9.226;2023-02-16T06:30:28;127526.28;;;0.55;100.00
3590;BME280;1809;48.470;9.226;2023-02-16T06:32:53;127519.91;;;0.52;100.00
3590;BME280;1809;48.470;9.226;2023-02-16T06:35:19;127511.41;;;0.48;100.00
3590;BME280;1809;48.470;9.226;2023-02-16T06:37:45;127856.41;;;0.50;100.00
3590;BME280;1809;48.470;9.226;2023-02-16T06:40:12;128214.34;;;0.59;100.00
3590;BME280;1809;48.470;9.226;2023-02-16T06:42:42;127876.66;;;0.60;100.00
3590;BME280;1809;48.470;9.226;2023-02-16T06:45:08;128605.59;;;0.83;100.00
3590;BME280;1809;48.470;9.226;2023-02-16T06:47:34;127269.19;;;0.94;100.00
3590;BME280;1809;48.470;9.226;2023-02-16T06:50:00;126252.78;;;0.96;100.00
3590;BME280;1809;48.470;9.226;2023-02-16T06:52:26;125252.19;;;1.05;100.00
3590;BME280;1809;48.470;9.226;2023-02-16T06:54:51;123882.00;;;0.99;100.00
3590;BME280;1809;48.470;9.226;2023-02-16T06:57:17;122520.69;;;0.98;100.00
3590;BME280;1809;48.470;9.226;2023-02-16T06:59:42;121842.81;;;0.98;100.00
3590;BME280;1809;48.470;9.226;2023-02-16T07:02:09;121212.41;;;1.23;100.00
3590;BME280;1809;48.470;9.226;2023-02-16T07:04:35;118831.84;;;1.20;100.00
3590;BME280;1809;48.470;9.226;2023-02-16T07:07:01;117470.22;;;1.18;100.00
3590;BME280;1809;48.470;9.226;2023-02-16T07:09:26;116114.09;;;1.18;100.00
3590;BME280;1809;48.470;9.226;2023-02-16T07:11:51;115109.75;;;1.24;100.00
3590;BME280;1809;48.470;9.226;2023-02-16T07:14:17;113749.63;;;1.22;100.00
3590;BME280;1809;48.470;9.226;2023-02-16T07:16:43;113066.53;;;1.19;100.00
3590;BME280;1809;48.470;9.226;2023-02-16T07:19:11;112723.19;;;1.16;100.00
3590;BME280;1809;48.470;9.226;2023-02-16T07:21:37;111700.94;;;1.13;100.00
3590;BME280;1809;48.470;9.226;2023-02-16T07:24:06;111699.09;;;1.12;100.00
3590;BME280;1809;48.470;9.226;2023-02-16T07:26:31;111023.94;;;1.13;100.00
3590;BME280;1809;48.470;9.226;2023-02-16T07:28:57;110337.06;;;1.07;100.00
3590;BME280;1809;48.470;9.226;2023-02-16T07:31:23;110330.63;;;1.03;100.00
3590;BME280;1809;48.470;9.226;2023-02-16T07:33:52;111345.78;;;1.03;100.00
3590;BME280;1809;48.470;9.226;2023-02-16T07:36:18;112721.34;;;1.15;100.00
3590;BME280;1809;48.470;9.226;2023-02-16T07:38:43;113747.75;;;1.21;100.00
3590;BME280;1809;48.470;9.226;2023-02-16T07:41:12;114440.53;;;1.29;100.00
3590;BME280;1809;48.470;9.226;2023-02-16T07:43:38;115133.66;;;1.37;100.00
3590;BME280;1809;48.470;9.226;2023-02-16T07:46:07;115491.81;;;1.47;100.00
3590;BME280;1809;48.470;9.226;2023-02-16T07:48:33;115862.66;;;1.63;100.00
3590;BME280;1809;48.470;9.226;2023-02-16T07:50:59;114863.31;;;1.73;100.00
3590;BME280;1809;48.470;9.226;2023-02-16T07:53:24;114543.19;;;1.83;100.00
3590;BME280;1809;48.470;9.226;2023-02-16T07:55:50;113578.53;;;2.11;100.00
3590;BME280;1809;48.470;9.226;2023-02-16T07:58:19;111911.47;;;2.27;100.00
3590;BME280;1809;48.470;9.226;2023-02-16T08:01:10;109231.75;;;2.45;100.00
3590;BME280;1809;48.470;9.226;2023-02-16T08:03:37;104856.84;;;2.62;100.00
3590;BME280;1809;48.470;9.226;2023-02-16T08:06:03;101511.94;;;2.87;100.00
3590;BME280;1809;48.470;9.226;2023-02-16T08:08:29;95461.50;;;3.10;100.00
3590;BME280;1809;48.470;9.226;2023-02-16T08:10:55;89401.38;;;3.23;100.00
3590;BME280;1809;48.470;9.226;2023-02-16T08:13:21;84693.34;;;3.34;100.00
3590;BME280;1809;48.470;9.226;2023-02-16T08:15:47;76295.31;;;3.49;100.00
3590;BME280;1809;48.470;9.226;2023-02-16T08:18:15;67570.16;;;3.58;100.00
3590;BME280;1809;48.470;9.226;2023-02-16T08:20:41;61217.41;;;3.75;100.00
3590;BME280;1809;48.470;9.226;2023-02-16T08:23:06;54199.13;;;3.87;100.00
3590;BME280;1809;48.470;9.226;2023-02-16T08:25:35;49198.78;;;4.02;100.00
3590;BME280;1809;48.470;9.226;2023-02-16T08:28:03;39868.63;;;4.15;100.00
3590;BME280;1809;48.470;9.226;2023-02-16T08:30:32;31228.63;;;4.37;100.00
3590;BME280;1809;48.470;9.226;2023-02-16T08:32:59;14986.59;;;4.62;100.00
3590;BME280;1809;48.470;9.226;2023-02-16T08:35:29;-2176.94;;;4.76;100.00
3590;BME280;1809;48.470;9.226;2023-02-16T08:38:00;-16304.78;;;4.87;100.00
3590;BME280;1809;48.470;9.226;2023-02-16T08:40:26;-16306.75;;;4.94;100.00
3590;BME280;1809;48.470;9.226;2023-02-16T08:42:54;-16313.22;;;5.17;100.00
3590;BME280;1809;48.470;9.226;2023-02-16T08:45:19;-16319.84;;;5.41;100.00
3590;BME280;1809;48.470;9.226;2023-02-16T08:47:46;-16326.75;;;5.66;100.00
3590;BME280;1809;48.470;9.226;2023-02-16T08:50:13;-16331.25;;;5.82;100.00
3590;BME280;1809;48.470;9.226;2023-02-16T08:52:40;-16342.78;;;6.23;100.00
3590;BME280;1809;48.470;9.226;2023-02-16T08:55:06;-16357.84;;;6.77;100.00
3590;BME280;1809;48.470;9.226;2023-02-16T08:57:34;-16358.25;;;6.79;100.00
3590;BME280;1809;48.470;9.226;2023-02-16T09:00:00;-16356.56;;;6.73;100.00
3590;BME280;1809;48.470;9.226;2023-02-16T09:02:44;-16369.09;;;7.18;100.00
3590;BME280;1809;48.470;9.226;2023-02-16T09:05:10;-16371.47;;;7.26;100.00
3590;BME280;1809;48.470;9.226;2023-02-16T09:07:35;-16372.31;;;7.29;100.00
3590;BME280;1809;48.470;9.226;2023-02-16T09:10:02;-16372.31;;;7.29;100.00
3590;BME280;1809;48.470;9.226;2023-02-16T09:12:28;-16376.53;;;7.44;100.00
3590;BME280;1809;48.470;9.226;2023-02-16T09:14:55;-16383.56;;;7.70;100.00
3590;BME280;1809;48.470;9.226;2023-02-16T09:17:22;-16384.97;;;7.75;100.00
3590;BME280;1809;48.470;9.226;2023-02-16T09:19:50;-16387.66;;;7.84;100.00
3590;BME280;1809;48.470;9.226;2023-02-16T09:22:16;-16394.41;;;8.08;100.00
3590;BME280;1809;48.470;9.226;2023-02-16T09:24:42;-16395.66;;;8.13;100.00
3590;BME280;1809;48.470;9.226;2023-02-16T09:27:08;-16401.00;;;8.32;100.00
3590;BME280;1809;48.470;9.226;2023-02-16T09:29:34;-16405.66;;;8.49;100.00
3590;BME280;1809;48.470;9.226;2023-02-16T09:31:59;-16409.16;;;8.61;100.00
3590;BME280;1809;48.470;9.226;2023-02-16T09:34:25;-16410.56;;;8.67;100.00
3590;BME280;1809;48.470;9.226;2023-02-16T09:36:52;-16413.94;;;8.79;100.00
3590;BME280;1809;48.470;9.226;2023-02-16T09:39:17;-16414.94;;;8.82;100.00
3590;BME280;1809;48.470;9.226;2023-02-16T09:46:37;-16426.16;;;9.23;100.00
3590;BME280;1809;48.470;9.226;2023-02-16T09:49:05;-16431.38;;;9.41;100.00
3590;BME280;1809;48.470;9.226;2023-02-16T09:51:37;-16435.56;;;9.56;100.00
3590;BME280;1809;48.470;9.226;2023-02-16T09:54:32;-16439.78;;;9.71;100.00
3590;BME280;1809;48.470;9.226;2023-02-16T09:57:15;-16444.16;;;9.87;100.00
3590;BME280;1809;48.470;9.226;2023-02-16T09:59:54;-16450.63;;;10.10;100.00
3590;BME280;1809;48.470;9.226;2023-02-16T10:05:22;-16454.97;;;10.26;100.00
3590;BME280;1809;48.470;9.226;2023-02-16T10:07:58;-16466.22;;;10.66;100.00
3590;BME280;1809;48.470;9.226;2023-02-16T10:10:30;-16470.84;;;10.83;100.00
3590;BME280;1809;48.470;9.226;2023-02-16T10:13:03;-16474.91;;;10.98;100.00
3590;BME280;1809;48.470;9.226;2023-02-16T10:15:37;-16479.81;;;11.15;100.00
3590;BME280;1809;48.470;9.226;2023-02-16T10:18:26;-16482.50;;;11.25;100.00
3590;BME280;1809;48.470;9.226;2023-02-16T10:21:00;-16485.88;;;11.37;100.00
3590;BME280;1809;48.470;9.226;2023-02-16T10:23:51;-16487.56;;;11.43;100.00
3590;BME280;1809;48.470;9.226;2023-02-16T10:26:34;-16490.34;;;11.53;100.00
3590;BME280;1809;48.470;9.226;2023-02-16T10:29:12;-16488.41;;;11.46;100.00
3590;BME280;1809;48.470;9.226;2023-02-16T10:34:50;-16501.88;;;11.95;100.00
3590;BME280;1809;48.470;9.226;2023-02-16T10:37:50;-16510.00;;;12.24;100.00
3590;BME280;1809;48.470;9.226;2023-02-16T10:40:26;-16513.09;;;12.35;100.00
3590;BME280;1809;48.470;9.226;2023-02-16T10:43:37;-16525.31;;;12.79;100.00
3590;BME280;1809;48.470;9.226;2023-02-16T10:45:59;-16533.16;;;13.07;100.00
3590;BME280;1809;48.470;9.226;2023-02-16T10:48:26;-16537.38;;;13.22;100.00
3590;BME280;1809;48.470;9.226;2023-02-16T10:51:12;-16544.69;;;13.48;100.00
3590;BME280;1809;48.470;9.226;2023-02-16T10:53:55;-16550.28;;;13.69;100.00
3590;BME280;1809;48.470;9.226;2023-02-16T10:57:01;-16549.31;;;13.65;100.00
3590;BME280;1809;48.470;9.226;2023-02-16T10:59:41;-16551.97;;;13.75;100.00
3590;BME280;1809;48.470;9.226;2023-02-16T11:02:28;-16552.94;;;13.78;100.00
3590;BME280;1809;48.470;9.226;2023-02-16T11:04:56;-16557.00;;;13.93;100.00
3590;BME280;1809;48.470;9.226;2023-02-16T11:07:26;-16556.88;;;13.92;100.00
3590;BME280;1809;48.470;9.226;2023-02-16T11:09:54;-16558.28;;;13.97;100.00
3590;BME280;1809;48.470;9.226;2023-02-16T11:12:30;-16561.09;;;14.08;100.00
3590;BME280;1809;48.470;9.226;2023-02-16T11:15:04;-16564.44;;;14.20;100.00
3590;BME280;1809;48.470;9.226;2023-02-16T11:17:32;-16566.56;;;14.27;100.00
3590;BME280;1809;48.470;9.226;2023-02-16T11:22:49;-16568.09;;;14.33;100.00
3590;BME280;1809;48.470;9.226;2023-02-16T11:25:20;-16563.88;;;14.18;94.42
3590;BME280;1809;48.470;9.226;2023-02-16T11:27:57;-16564.59;;;14.20;96.85
3590;BME280;1809;48.470;9.226;2023-02-16T11:30:37;-16564.44;;;14.20;83.60
3590;BME280;1809;48.470;9.226;2023-02-16T11:33:09;-16564.31;;;14.19;77.36
3590;BME280;1809;48.470;9.226;2023-02-16T11:35:44;-16564.16;;;14.19;78.51
3590;BME280;1809;48.470;9.226;2023-02-16T11:38:28;-16562.34;;;14.12;76.70
3590;BME280;1809;48.470;9.226;2023-02-16T11:40:54;-16561.09;;;14.08;74.82
3590;BME280;1809;48.470;9.226;2023-02-16T11:43:21;-16557.31;;;13.94;74.10
3590;BME280;1809;48.470;9.226;2023-02-16T11:46:18;-16558.84;;;13.99;77.28
3590;BME280;1809;48.470;9.226;2023-02-16T11:48:44;-16556.88;;;13.92;74.85
3590;BME280;1809;48.470;9.226;2023-02-16T11:51:11;-16555.19;;;13.86;71.95
3590;BME280;1809;48.470;9.226;2023-02-16T11:53:40;-16555.75;;;13.88;71.64
3590;BME280;1809;48.470;9.226;2023-02-16T11:56:25;-16558.28;;;13.97;75.56
3590;BME280;1809;48.470;9.226;2023-02-16T12:04:40;-16560.09;;;14.04;73.38
3590;BME280;1809;48.470;9.226;2023-02-16T12:07:30;-16562.22;;;14.12;75.41
3590;BME280;1809;48.470;9.226;2023-02-16T12:13:16;-16563.31;;;14.16;72.99
3590;BME280;1809;48.470;9.226;2023-02-16T12:15:50;-16567.81;;;14.32;73.32
3590;BME280;1809;48.470;9.226;2023-02-16T12:18:45;-16562.91;;;14.14;73.87
3590;BME280;1809;48.470;9.226;2023-02-16T12:24:26;-16560.53;;;14.06;68.95
3590;BME280;1809;48.470;9.226;2023-02-16T12:27:24;-16561.91;;;14.11;69.77
3590;BME280;1809;48.470;9.226;2023-02-16T12:30:00;-16560.38;;;14.05;71.66
3590;BME280;1809;48.470;9.226;2023-02-16T12:32:37;-16562.22;;;14.12;71.79
3590;BME280;1809;48.470;9.226;2023-02-16T12:43:20;-16572.44;;;14.48;68.19
3590;BME280;1809;48.470;9.226;2023-02-16T12:45:48;-16577.06;;;14.65;66.63
3590;BME280;1809;48.470;9.226;2023-02-16T12:48:57;-16573.97;;;14.54;71.68
3590;BME280;1809;48.470;9.226;2023-02-16T12:51:29;-16577.50;;;14.67;71.17
3590;BME280;1809;48.470;9.226;2023-02-16T12:54:13;-16576.50;;;14.63;68.02
3590;BME280;1809;48.470;9.226;2023-02-16T12:56:58;-16575.94;;;14.61;67.18
3590;BME280;1809;48.470;9.226;2023-02-16T12:59:38;-16579.16;;;14.73;65.60
3590;BME280;1809;48.470;9.226;2023-02-16T13:02:15;-16582.69;;;14.85;67.44
3590;BME280;1809;48.470;9.226;2023-02-16T13:04:57;-16581.28;;;14.80;64.89
3590;BME280;1809;48.470;9.226;2023-02-16T13:07:30;-16584.63;;;14.92;60.44
3590;BME280;1809;48.470;9.226;2023-02-16T13:10:01;-16584.63;;;14.92;61.41
3590;BME280;1809;48.470;9.226;2023-02-16T13:12:50;-16590.25;;;15.13;62.56
3590;BME280;1809;48.470;9.226;2023-02-16T13:15:39;-16588.84;;;15.07;57.81
3590;BME280;1809;48.470;9.226;2023-02-16T13:18:23;-16593.06;;;15.23;57.80
3590;BME280;1809;48.470;9.226;2023-02-16T13:20:54;-16590.53;;;15.14;57.65
3590;BME280;1809;48.470;9.226;2023-02-16T13:26:18;-16590.81;;;15.15;59.34
3590;BME280;1809;48.470;9.226;2023-02-16T13:31:48;-16591.38;;;15.17;61.41
3590;BME280;1809;48.470;9.226;2023-02-16T13:34:40;-16593.34;;;15.24;62.37
3590;BME280;1809;48.470;9.226;2023-02-16T13:40:41;-16595.72;;;15.32;60.50
3590;BME280;1809;48.470;9.226;2023-02-16T13:43:18;-16592.50;;;15.21;63.14
3590;BME280;1809;48.470;9.226;2023-02-16T13:45:48;-16595.00;;;15.30;60.71
3590;BME280;1809;48.470;9.226;2023-02-16T13:48:26;-16595.84;;;15.33;63.09
3590;BME280;1809;48.470;9.226;2023-02-16T13:51:01;-16594.72;;;15.29;63.77
3590;BME280;1809;48.470;9.226;2023-02-16T13:53:42;-16594.72;;;15.29;64.04
3590;BME280;1809;48.470;9.226;2023-02-16T13:58:56;-16594.03;;;15.26;66.74
3590;BME280;1809;48.470;9.226;2023-02-16T14:03:59;-16591.38;;;15.17;67.88
3590;BME280;1809;48.470;9.226;2023-02-16T14:14:43;-16591.38;;;15.17;67.48
3590;BME280;1809;48.470;9.226;2023-02-16T14:19:39;-16589.28;;;15.09;71.39
3590;BME280;1809;48.470;9.226;2023-02-16T14:22:16;-16587.88;;;15.04;70.96
3590;BME280;1809;48.470;9.226;2023-02-16T14:24:42;-16586.03;;;14.97;71.17
3590;BME280;1809;48.470;9.226;2023-02-16T14:30:28;-16584.22;;;14.91;72.92
3590;BME280;1809;48.470;9.226;2023-02-16T14:33:02;-16586.03;;;14.97;72.65
3590;BME280;1809;48.470;9.226;2023-02-16T14:35:34;-16587.88;;;15.04;73.08
3590;BME280;1809;48.470;9.226;2023-02-16T14:38:03;-16590.38;;;15.13;72.98
3590;BME280;1809;48.470;9.226;2023-02-16T14:43:02;-16588.00;;;15.04;77.88
3590;BME280;1809;48.470;9.226;2023-02-16T14:45:47;-16583.25;;;14.87;78.46
3590;BME280;1809;48.470;9.226;2023-02-16T14:48:50;-16582.53;;;14.85;80.72
3590;BME280;1809;48.470;9.226;2023-02-16T14:51:47;-16584.63;;;14.92;83.10
3590;BME280;1809;48.470;9.226;2023-02-16T14:57:49;-16576.50;;;14.63;88.95
3590;BME280;1809;48.470;9.226;2023-02-16T15:03:00;-16574.41;;;14.56;91.34
3590;BME280;1809;48.470;9.226;2023-02-16T15:05:33;-16573.44;;;14.52;90.71